Largo — PFNC — position and weather

sailwx.info

Track history (hours):
 
Tides and Currents Weather Stations Pressure Air Temp Water Temp Dewpoint Dewpoint Depression Visibility Wind Speed Wind Dir Waves Ship Positions

Largo

Last reported at 2016-Aug-24 06:32 UTC. Time now 2016-Aug-26 19:57 UTC.
Position N 37°01' E 000°49'.

Length 91 m; draft 6.5 m.

Type: Cargo ship. MMSI: 245645000.

Date/timePositionNaut miles runAvg speedWind from/ knotsBaromVisibWave heightAir tempDewpointWater temp
2016-Aug-24 06:32N 37°01' E 000°49'28 8.9
2016-Aug-24 03:24N 37°23' E 000°27'10 8.8
2016-Aug-24 02:13N 37°31' E 000°19'6 8.9
2016-Aug-24 01:33N 37°36' E 000°14'12 8.9
2016-Aug-24 00:10N 37°45' E 000°05'18 8.8
2016-Aug-23 22:08N 37°59' W 000°09'6 8.8
2016-Aug-23 21:26N 38°04' W 000°14'  
2016-Aug-18 07:18N 38°18' W 000°11'78 8.9
2016-Aug-17 22:33N 39°06' E 001°07'11 8.8
2016-Aug-17 21:18N 39°12' E 001°19'9 8.9
2016-Aug-17 20:17N 39°17' E 001°29'7 8.9
2016-Aug-17 19:27N 39°21' E 001°37'8 9.0
2016-Aug-17 18:33N 39°26' E 001°46'9 9.0
2016-Aug-17 17:33N 39°31' E 001°55'9 9.0
2016-Aug-17 16:33N 39°36' E 002°05'9 9.0
2016-Aug-17 15:33N 39°40' E 002°15'9 8.9
2016-Aug-17 14:33N 39°45' E 002°25'9 8.9
2016-Aug-17 13:33N 39°50' E 002°34'9 9.1
2016-Aug-17 12:33N 39°56' E 002°44'9 9.0
2016-Aug-17 11:30N 39°58' E 002°56'14 6.0
2016-Aug-17 09:10N 39°51' E 003°12'3 1.7
2016-Aug-17 07:25N 39°50' E 003°09'6 4.8
2016-Aug-17 06:06N 39°50' E 003°17'5 8.6
2016-Aug-17 05:32N 39°49' E 003°23'12 8.4
2016-Aug-17 04:08N 39°40' E 003°33'6 9.0
2016-Aug-17 03:27N 39°34' E 003°32'8 9.0
2016-Aug-17 02:33N 39°26' E 003°32'9 9.0
2016-Aug-17 01:31N 39°17' E 003°32'9 9.2
2016-Aug-17 00:31N 39°08' E 003°32'10 9.1
2016-Aug-16 23:22N 38°57' E 003°32'8 9.3
2016-Aug-16 22:33N 38°49' E 003°33'27 9.1
2016-Aug-16 19:34N 38°22' E 003°34'11 9.1
2016-Aug-16 18:23N 38°12' E 003°34'8 9.0
2016-Aug-16 17:30N 38°04' E 003°34'59 7.5
2016-Aug-16 09:33N 37°09' E 004°04'12 8.7
2016-Aug-16 08:12N 37°06' E 004°18'35 8.8
2016-Aug-16 04:15N 36°53' E 004°59'7 9.3
2016-Aug-16 03:33N 36°49' E 005°05'  
Track history (hours):
 
Tides and Currents Weather Stations Pressure Air Temp Water Temp Dewpoint Dewpoint Depression Visibility Wind Speed Wind Dir Waves Ship Positions

Largo

Last reported at 2016-Aug-24 06:32 UTC. Time now 2016-Aug-26 19:57 UTC.
Position N 37°01' E 000°49'.

Length 91 m; draft 6.5 m.

Type: Cargo ship. MMSI: 245645000.

Date/timePositionNaut miles runAvg speedWind from/ knotsBaromVisibWave heightAir tempDewpointWater temp
2016-Aug-24 06:32N 37°01' E 000°49'28 8.9
2016-Aug-24 03:24N 37°23' E 000°27'10 8.8
2016-Aug-24 02:13N 37°31' E 000°19'6 8.9
2016-Aug-24 01:33N 37°36' E 000°14'12 8.9
2016-Aug-24 00:10N 37°45' E 000°05'18 8.8
2016-Aug-23 22:08N 37°59' W 000°09'6 8.8
2016-Aug-23 21:26N 38°04' W 000°14'  
2016-Aug-18 07:18N 38°18' W 000°11'78 8.9
2016-Aug-17 22:33N 39°06' E 001°07'11 8.8
2016-Aug-17 21:18N 39°12' E 001°19'9 8.9
2016-Aug-17 20:17N 39°17' E 001°29'7 8.9
2016-Aug-17 19:27N 39°21' E 001°37'8 9.0
2016-Aug-17 18:33N 39°26' E 001°46'9 9.0
2016-Aug-17 17:33N 39°31' E 001°55'9 9.0
2016-Aug-17 16:33N 39°36' E 002°05'9 9.0
2016-Aug-17 15:33N 39°40' E 002°15'9 8.9
2016-Aug-17 14:33N 39°45' E 002°25'9 8.9
2016-Aug-17 13:33N 39°50' E 002°34'9 9.1
2016-Aug-17 12:33N 39°56' E 002°44'9 9.0
2016-Aug-17 11:30N 39°58' E 002°56'14 6.0
2016-Aug-17 09:10N 39°51' E 003°12'3 1.7
2016-Aug-17 07:25N 39°50' E 003°09'6 4.8
2016-Aug-17 06:06N 39°50' E 003°17'5 8.6
2016-Aug-17 05:32N 39°49' E 003°23'12 8.4
2016-Aug-17 04:08N 39°40' E 003°33'6 9.0
2016-Aug-17 03:27N 39°34' E 003°32'8 9.0
2016-Aug-17 02:33N 39°26' E 003°32'9 9.0
2016-Aug-17 01:31N 39°17' E 003°32'9 9.2
2016-Aug-17 00:31N 39°08' E 003°32'10 9.1
2016-Aug-16 23:22N 38°57' E 003°32'8 9.3
2016-Aug-16 22:33N 38°49' E 003°33'27 9.1
2016-Aug-16 19:34N 38°22' E 003°34'11 9.1
2016-Aug-16 18:23N 38°12' E 003°34'8 9.0
2016-Aug-16 17:30N 38°04' E 003°34'59 7.5
2016-Aug-16 09:33N 37°09' E 004°04'12 8.7
2016-Aug-16 08:12N 37°06' E 004°18'35 8.8
2016-Aug-16 04:15N 36°53' E 004°59'7 9.3
2016-Aug-16 03:33N 36°49' E 005°05'  

Dump ship's entire track history